Time;durP1;ratioP1;P1;durP2;ratioP2;P2;SDS_P1;SDS_P2;PMS_P1;PMS_P2;Temp;Humidity;BMP_temperature;BMP_pressure;BME280_temperature;BME280_humidity;BME280_pressure;Samples;Min_cycle;Max_cycle;Signal;HPM_P1;HPM_P2
2022/06/28 00:02:02;;;;;;;;;;;17.50;99.90;;;;;;4346599;32;45162;-83
2022/06/28 00:04:29;;;;;;;;;;;17.50;99.90;;;;;;4347181;32;43013;-83
2022/06/28 00:06:56;;;;;;;;;;;17.50;99.90;;;;;;4360432;32;44235;-83
2022/06/28 00:09:24;;;;;;;;;;;17.50;99.90;;;;;;4347105;32;44200;-82
2022/06/28 00:11:51;;;;;;;;;;;17.50;99.90;;;;;;4360020;32;43004;-83
2022/06/28 00:17:05;;;;;;;;;;;17.50;99.90;;;;;;4360180;32;45622;-83
2022/06/28 00:19:32;;;;;;;;;;;17.40;99.90;;;;;;4346858;32;42916;-83
2022/06/28 00:21:59;;;;;;;;;;;17.50;99.90;;;;;;4346539;32;42871;-82
2022/06/28 00:24:26;;;;;;;;;;;17.40;99.90;;;;;;4359704;32;44942;-83
2022/06/28 00:26:53;;;;;;;;;;;17.40;99.90;;;;;;4346319;32;45065;-83
2022/06/28 00:29:20;;;;;;;;;;;17.40;99.90;;;;;;4360144;32;44019;-83
2022/06/28 00:31:47;;;;;;;;;;;17.40;99.90;;;;;;4346836;32;43197;-82
2022/06/28 00:34:15;;;;;;;;;;;17.30;99.90;;;;;;4346730;32;43966;-82
2022/06/28 00:36:42;;;;;;;;;;;17.40;99.90;;;;;;4360080;32;43799;-82
2022/06/28 00:39:09;;;;;;;;;;;17.30;99.90;;;;;;4359428;32;44286;-82
2022/06/28 00:41:36;;;;;;;;;;;17.30;99.90;;;;;;4346384;33;43848;-82
2022/06/28 00:44:04;;;;;;;;;;;17.30;99.90;;;;;;4346609;33;42688;-82
2022/06/28 00:46:33;;;;;;;;;;;17.30;99.90;;;;;;4346194;33;42772;-83
2022/06/28 00:49:01;;;;;;;;;;;17.30;99.90;;;;;;4346676;33;44071;-82
2022/06/28 00:51:28;;;;;;;;;;;17.30;99.90;;;;;;4346409;33;43297;-82
2022/06/28 00:53:55;;;;;;;;;;;17.30;99.90;;;;;;4359768;33;42796;-82
2022/06/28 00:56:23;;;;;;;;;;;17.30;99.90;;;;;;4346195;33;45947;-82
2022/06/28 00:58:55;;;;;;;;;;;17.30;99.90;;;;;;4359725;33;43595;-82
2022/06/28 01:01:26;;;;;;;;;;;17.30;99.90;;;;;;4346167;33;44621;-82
2022/06/28 01:03:54;;;;;;;;;;;17.30;99.90;;;;;;4346006;33;45762;-82
2022/06/28 01:06:21;;;;;;;;;;;17.30;99.90;;;;;;4359730;33;43947;-82
2022/06/28 01:08:48;;;;;;;;;;;17.30;99.90;;;;;;4346045;33;45744;-82
2022/06/28 01:11:21;;;;;;;;;;;17.20;99.90;;;;;;4359517;33;43796;-82
2022/06/28 01:13:49;;;;;;;;;;;17.20;99.90;;;;;;4359405;33;43036;-82
2022/06/28 01:16:17;;;;;;;;;;;17.20;99.90;;;;;;4346082;33;43280;-82
2022/06/28 01:18:44;;;;;;;;;;;17.20;99.90;;;;;;4346241;33;44362;-83
2022/06/28 01:21:12;;;;;;;;;;;17.20;99.90;;;;;;4346021;33;44281;-82
2022/06/28 01:23:41;;;;;;;;;;;17.20;99.90;;;;;;4359600;33;43976;-82
2022/06/28 01:26:11;;;;;;;;;;;17.10;99.90;;;;;;4346012;33;44203;-82
2022/06/28 01:28:39;;;;;;;;;;;17.10;99.90;;;;;;4346030;33;43458;-82
2022/06/28 01:31:06;;;;;;;;;;;17.10;99.90;;;;;;4359748;33;46201;-82
2022/06/28 01:33:36;;;;;;;;;;;17.10;99.90;;;;;;4359774;33;45075;-82
2022/06/28 01:36:04;;;;;;;;;;;17.00;99.90;;;;;;4359084;33;44571;-82
2022/06/28 01:38:31;;;;;;;;;;;17.00;99.90;;;;;;4346270;33;46372;-82
2022/06/28 01:40:59;;;;;;;;;;;17.10;99.90;;;;;;4346358;33;43905;-83
2022/06/28 01:43:26;;;;;;;;;;;17.00;99.90;;;;;;4346115;33;42485;-82
2022/06/28 01:45:53;;;;;;;;;;;16.90;99.90;;;;;;4359227;33;43331;-82
2022/06/28 01:48:22;;;;;;;;;;;16.90;99.90;;;;;;4346689;33;20035;-82
2022/06/28 01:50:52;;;;;;;;;;;16.90;99.90;;;;;;4359707;32;42924;-82
2022/06/28 01:53:21;;;;;;;;;;;16.90;99.90;;;;;;4348840;32;42596;-82
2022/06/28 01:55:49;;;;;;;;;;;16.90;99.90;;;;;;4361745;32;43910;-82
2022/06/28 01:58:16;;;;;;;;;;;16.90;99.90;;;;;;4348830;32;44711;-83
2022/06/28 02:00:43;;;;;;;;;;;16.90;99.90;;;;;;4362231;32;44047;-83
2022/06/28 02:03:10;;;;;;;;;;;16.90;99.90;;;;;;4361404;32;43246;-83
2022/06/28 02:05:37;;;;;;;;;;;16.90;99.90;;;;;;4348339;32;43072;-83
2022/06/28 02:08:04;;;;;;;;;;;16.90;99.90;;;;;;4348294;32;44166;-83
2022/06/28 02:10:31;;;;;;;;;;;16.90;99.90;;;;;;4361695;32;44224;-82
2022/06/28 02:12:58;;;;;;;;;;;16.90;99.90;;;;;;4348365;32;43889;-83
2022/06/28 02:15:26;;;;;;;;;;;16.90;99.90;;;;;;4361460;32;43528;-83
2022/06/28 02:17:56;;;;;;;;;;;16.80;99.90;;;;;;4348786;32;43845;-83
2022/06/28 02:20:23;;;;;;;;;;;16.80;99.90;;;;;;4348459;32;44511;-82
2022/06/28 02:22:50;;;;;;;;;;;16.80;99.90;;;;;;4361718;32;42972;-82
2022/06/28 02:25:17;;;;;;;;;;;16.80;99.90;;;;;;4348166;32;43530;-82
2022/06/28 02:27:47;;;;;;;;;;;16.80;99.90;;;;;;4348341;32;43242;-83
2022/06/28 02:30:14;;;;;;;;;;;16.80;99.90;;;;;;4361647;32;44151;-84
2022/06/28 02:32:41;;;;;;;;;;;16.80;99.90;;;;;;4361630;32;45640;-82
2022/06/28 02:40:42;;;;;;;;;;;16.70;99.90;;;;;;4361197;32;42962;-83
2022/06/28 02:43:10;;;;;;;;;;;16.60;99.80;;;;;;4360998;32;44673;-83
2022/06/28 02:45:39;;;;;;;;;;;16.60;99.90;;;;;;4348082;32;44887;-83
2022/06/28 02:48:07;;;;;;;;;;;16.60;99.80;;;;;;4347755;32;43214;-83
2022/06/28 02:50:34;;;;;;;;;;;16.60;99.90;;;;;;4347812;32;42931;-83
2022/06/28 02:53:01;;;;;;;;;;;16.50;99.90;;;;;;4361342;32;43185;-83
2022/06/28 02:55:28;;;;;;;;;;;16.60;99.90;;;;;;4347983;32;42947;-82
2022/06/28 02:57:55;;;;;;;;;;;16.60;99.90;;;;;;4360853;32;43924;-83
2022/06/28 03:00:22;;;;;;;;;;;16.60;99.90;;;;;;4347817;32;44474;-83
2022/06/28 03:02:49;;;;;;;;;;;16.50;99.90;;;;;;4360452;32;44210;-83
2022/06/28 03:05:18;;;;;;;;;;;16.50;99.90;;;;;;4347337;32;45844;-83
2022/06/28 03:07:45;;;;;;;;;;;16.50;99.90;;;;;;4347532;32;46062;-83
2022/06/28 03:10:13;;;;;;;;;;;16.50;99.80;;;;;;4347878;32;43680;-83
2022/06/28 03:12:40;;;;;;;;;;;16.50;99.70;;;;;;4360700;32;43186;-83
2022/06/28 03:15:08;;;;;;;;;;;16.40;99.90;;;;;;4347746;32;44036;-83
2022/06/28 03:17:35;;;;;;;;;;;16.40;99.90;;;;;;4347394;32;42366;-83
2022/06/28 03:20:03;;;;;;;;;;;16.40;99.80;;;;;;4347435;32;43922;-84
2022/06/28 03:22:30;;;;;;;;;;;16.40;99.80;;;;;;4360612;32;43470;-83
2022/06/28 03:24:57;;;;;;;;;;;16.40;99.80;;;;;;4360963;32;43966;-83
2022/06/28 03:27:24;;;;;;;;;;;16.40;99.90;;;;;;4360858;32;42664;-83
2022/06/28 03:29:52;;;;;;;;;;;16.40;99.80;;;;;;4360835;32;42657;-83
2022/06/28 03:32:19;;;;;;;;;;;16.40;99.90;;;;;;4347165;32;43858;-83
2022/06/28 03:34:46;;;;;;;;;;;16.40;99.70;;;;;;4347669;32;43468;-84
2022/06/28 03:37:13;;;;;;;;;;;16.30;99.70;;;;;;4360805;32;43978;-83
2022/06/28 03:39:40;;;;;;;;;;;16.30;99.70;;;;;;4360299;32;42423;-84
2022/06/28 03:42:07;;;;;;;;;;;16.30;99.70;;;;;;4346856;32;44251;-83
2022/06/28 03:44:34;;;;;;;;;;;16.30;99.90;;;;;;4360744;32;44383;-83
2022/06/28 03:47:02;;;;;;;;;;;16.30;99.80;;;;;;4347006;32;43413;-83
2022/06/28 03:49:29;;;;;;;;;;;16.20;99.80;;;;;;4346821;32;43897;-83
2022/06/28 03:51:56;;;;;;;;;;;16.10;99.80;;;;;;4360439;32;42452;-83
2022/06/28 03:54:24;;;;;;;;;;;16.10;99.90;;;;;;4360157;32;42990;-84
2022/06/28 03:56:51;;;;;;;;;;;16.10;99.90;;;;;;4347093;32;43889;-83
2022/06/28 03:59:18;;;;;;;;;;;16.10;99.90;;;;;;4347228;32;45397;-83
2022/06/28 04:01:45;;;;;;;;;;;16.20;99.90;;;;;;4360296;32;43348;-83
2022/06/28 04:04:13;;;;;;;;;;;16.20;99.90;;;;;;4360101;32;44948;-84
2022/06/28 04:06:40;;;;;;;;;;;16.20;99.90;;;;;;4360492;32;43224;-83
2022/06/28 04:09:07;;;;;;;;;;;16.20;99.90;;;;;;4359996;32;43934;-82
2022/06/28 04:11:34;;;;;;;;;;;16.10;99.90;;;;;;4346980;32;43455;-82
2022/06/28 04:14:01;;;;;;;;;;;16.10;99.90;;;;;;4359854;32;43435;-82
2022/06/28 04:16:29;;;;;;;;;;;16.10;99.90;;;;;;4346679;32;42905;-83
2022/06/28 04:18:56;;;;;;;;;;;16.10;99.90;;;;;;4346626;32;43849;-83
2022/06/28 04:21:25;;;;;;;;;;;16.10;99.90;;;;;;4360151;32;43333;-83
2022/06/28 04:23:52;;;;;;;;;;;16.10;99.90;;;;;;4360215;32;43924;-83
2022/06/28 04:26:19;;;;;;;;;;;16.10;99.90;;;;;;4346445;32;43266;-83
2022/06/28 04:28:46;;;;;;;;;;;16.00;99.90;;;;;;4359696;32;42941;-83
2022/06/28 04:31:15;;;;;;;;;;;16.00;99.90;;;;;;4346725;32;44034;-82
2022/06/28 04:33:42;;;;;;;;;;;16.00;99.90;;;;;;4346388;32;43344;-83
2022/06/28 04:36:09;;;;;;;;;;;16.00;99.90;;;;;;4359684;32;43207;-82
2022/06/28 04:38:36;;;;;;;;;;;16.00;99.90;;;;;;4360019;32;43576;-82
2022/06/28 04:41:05;;;;;;;;;;;16.00;99.90;;;;;;4360034;32;44350;-83
2022/06/28 04:43:32;;;;;;;;;;;16.00;99.90;;;;;;4346737;33;45903;-83
2022/06/28 04:45:59;;;;;;;;;;;16.00;99.90;;;;;;4359520;33;44762;-82
2022/06/28 04:48:26;;;;;;;;;;;16.00;99.90;;;;;;4359541;33;44234;-83
2022/06/28 04:50:53;;;;;;;;;;;16.00;99.90;;;;;;4359537;33;43482;-82
2022/06/28 04:53:20;;;;;;;;;;;16.10;99.90;;;;;;4359627;33;44613;-83
2022/06/28 04:55:48;;;;;;;;;;;16.10;99.90;;;;;;4346413;33;44007;-83
2022/06/28 04:58:16;;;;;;;;;;;16.10;99.90;;;;;;4346547;33;45766;-83
2022/06/28 05:00:43;;;;;;;;;;;16.10;99.90;;;;;;4359434;33;44166;-82
2022/06/28 05:03:30;;;;;;;;;;;16.10;99.90;;;;;;4348414;33;46144;-83
2022/06/28 05:05:57;;;;;;;;;;;16.10;99.90;;;;;;4359799;33;44255;-83
2022/06/28 05:08:24;;;;;;;;;;;16.20;99.90;;;;;;4346160;33;43784;-82
2022/06/28 05:10:54;;;;;;;;;;;16.20;99.90;;;;;;4345956;33;43757;-82
2022/06/28 05:13:21;;;;;;;;;;;16.20;99.90;;;;;;4359615;33;43203;-82
2022/06/28 05:15:48;;;;;;;;;;;16.20;99.90;;;;;;4359773;33;43672;-83
2022/06/28 05:18:15;;;;;;;;;;;16.20;99.90;;;;;;4359504;33;44210;-83
2022/06/28 05:20:42;;;;;;;;;;;16.20;99.90;;;;;;4345933;33;43082;-82
2022/06/28 05:23:09;;;;;;;;;;;16.20;99.90;;;;;;4359740;33;44102;-82
2022/06/28 05:25:36;;;;;;;;;;;16.20;99.90;;;;;;4347142;32;43824;-82
2022/06/28 05:28:04;;;;;;;;;;;16.20;99.90;;;;;;4362372;32;43957;-82
2022/06/28 05:30:31;;;;;;;;;;;16.20;99.90;;;;;;4362642;32;43945;-82
2022/06/28 05:32:58;;;;;;;;;;;16.30;99.90;;;;;;4349160;32;44126;-82
2022/06/28 05:35:25;;;;;;;;;;;16.20;99.90;;;;;;4349142;32;43951;-84
2022/06/28 05:38:00;;;;;;;;;;;16.30;99.90;;;;;;4350658;32;20019;-82
2022/06/28 05:40:27;;;;;;;;;;;16.30;99.90;;;;;;4348538;32;43748;-84
2022/06/28 05:42:54;;;;;;;;;;;16.30;99.90;;;;;;4361890;32;43881;-82
2022/06/28 05:45:21;;;;;;;;;;;16.30;99.90;;;;;;4362390;32;43270;-83
2022/06/28 05:47:48;;;;;;;;;;;16.30;99.90;;;;;;4348605;32;43929;-83
2022/06/28 05:50:16;;;;;;;;;;;16.30;99.90;;;;;;4348520;32;44179;-83
2022/06/28 05:52:43;;;;;;;;;;;16.30;99.90;;;;;;4348796;32;44233;-84
2022/06/28 05:55:10;;;;;;;;;;;16.30;99.90;;;;;;4348695;32;42750;-81
2022/06/28 05:57:37;;;;;;;;;;;16.40;99.90;;;;;;4348328;32;44127;-83
2022/06/28 06:00:05;;;;;;;;;;;16.40;99.90;;;;;;4362022;32;45003;-84
2022/06/28 06:02:32;;;;;;;;;;;16.40;99.90;;;;;;4348550;32;44119;-82
2022/06/28 06:05:02;;;;;;;;;;;16.40;99.90;;;;;;4361564;32;43974;-84
2022/06/28 06:07:30;;;;;;;;;;;16.40;99.90;;;;;;4348921;32;43265;-81
2022/06/28 06:09:57;;;;;;;;;;;16.40;99.90;;;;;;4348602;32;44207;-81
2022/06/28 06:12:24;;;;;;;;;;;16.40;99.90;;;;;;4348476;32;44228;-82
2022/06/28 06:14:51;;;;;;;;;;;16.40;99.90;;;;;;4361834;32;45756;-84
2022/06/28 06:17:18;;;;;;;;;;;16.40;99.90;;;;;;4348243;32;43117;-83
2022/06/28 06:19:45;;;;;;;;;;;16.40;99.90;;;;;;4348628;32;44150;-83
2022/06/28 06:22:13;;;;;;;;;;;16.40;99.90;;;;;;4348338;32;44328;-85
2022/06/28 06:24:40;;;;;;;;;;;16.40;99.90;;;;;;4361644;32;44211;-82
2022/06/28 06:27:07;;;;;;;;;;;16.40;99.90;;;;;;4347975;32;44659;-83
2022/06/28 06:29:35;;;;;;;;;;;16.40;99.90;;;;;;4348372;32;43405;-82
2022/06/28 06:32:02;;;;;;;;;;;16.40;99.90;;;;;;4348059;32;43923;-83
2022/06/28 06:34:30;;;;;;;;;;;16.40;99.90;;;;;;4361270;32;42883;-83
2022/06/28 06:36:57;;;;;;;;;;;16.40;99.90;;;;;;4361106;32;44991;-82
2022/06/28 06:39:24;;;;;;;;;;;16.40;99.90;;;;;;4348090;32;43473;-82
2022/06/28 06:41:51;;;;;;;;;;;16.50;99.90;;;;;;4361122;32;42632;-82
2022/06/28 06:44:18;;;;;;;;;;;16.40;99.90;;;;;;4348114;32;43479;-83
2022/06/28 06:46:45;;;;;;;;;;;16.50;99.90;;;;;;4348368;32;43470;-83
2022/06/28 06:49:14;;;;;;;;;;;16.50;99.90;;;;;;4360873;32;43786;-82
2022/06/28 06:51:44;;;;;;;;;;;16.50;99.90;;;;;;4361009;32;43481;-81
2022/06/28 06:54:12;;;;;;;;;;;16.50;99.90;;;;;;4360903;32;44408;-81
2022/06/28 06:56:40;;;;;;;;;;;16.50;99.90;;;;;;4347949;32;43844;-81
2022/06/28 06:59:07;;;;;;;;;;;16.50;99.90;;;;;;4347599;32;43204;-82
2022/06/28 07:01:34;;;;;;;;;;;16.50;99.90;;;;;;4361347;32;44239;-83
2022/06/28 07:04:11;;;;;;;;;;;16.50;99.90;;;;;;4344819;33;43703;-82
2022/06/28 07:06:38;;;;;;;;;;;16.50;99.90;;;;;;4345456;33;46054;-81
2022/06/28 07:09:05;;;;;;;;;;;16.50;99.90;;;;;;4345261;33;42931;-82
2022/06/28 07:11:33;;;;;;;;;;;16.60;99.90;;;;;;4345816;33;43907;-82
2022/06/28 07:14:00;;;;;;;;;;;16.60;99.90;;;;;;4345929;33;44236;-82
2022/06/28 07:16:27;;;;;;;;;;;16.50;99.90;;;;;;4344704;33;44400;-82
2022/06/28 07:18:56;;;;;;;;;;;16.60;99.90;;;;;;4346001;33;42749;-82
2022/06/28 07:21:24;;;;;;;;;;;16.60;99.90;;;;;;4346189;33;44019;-82
2022/06/28 07:23:51;;;;;;;;;;;16.60;99.90;;;;;;4346092;33;43246;-82
2022/06/28 07:26:18;;;;;;;;;;;16.60;99.90;;;;;;4345434;33;44599;-82
2022/06/28 07:28:46;;;;;;;;;;;16.60;99.90;;;;;;4345698;33;45658;-82
2022/06/28 07:31:15;;;;;;;;;;;16.60;99.90;;;;;;4345887;33;43253;-82
2022/06/28 07:33:42;;;;;;;;;;;16.60;99.90;;;;;;4345814;33;42830;-81
2022/06/28 07:36:09;;;;;;;;;;;16.60;99.90;;;;;;4344337;33;44032;-82
2022/06/28 07:38:37;;;;;;;;;;;16.70;99.90;;;;;;4344323;33;43284;-82
2022/06/28 07:41:04;;;;;;;;;;;16.70;99.90;;;;;;4345562;33;44169;-81
2022/06/28 07:43:31;;;;;;;;;;;16.70;99.90;;;;;;4344438;33;42582;-82
2022/06/28 07:45:58;;;;;;;;;;;16.60;99.90;;;;;;4344847;33;44979;-83
2022/06/28 07:48:25;;;;;;;;;;;16.70;99.90;;;;;;4344394;33;43478;-82
2022/06/28 07:53:39;;;;;;;;;;;16.70;99.90;;;;;;4345908;33;43441;-82
2022/06/28 07:56:06;;;;;;;;;;;16.70;99.90;;;;;;4344105;33;44263;-83
2022/06/28 07:58:33;;;;;;;;;;;16.70;99.90;;;;;;4345187;33;43470;-82
2022/06/28 08:01:00;;;;;;;;;;;16.80;99.90;;;;;;4344194;33;43959;-82
2022/06/28 08:03:28;;;;;;;;;;;16.70;99.90;;;;;;4343894;33;43269;-83
2022/06/28 08:05:54;;;;;;;;;;;16.70;99.90;;;;;;4345767;33;43778;-84
2022/06/28 08:08:22;;;;;;;;;;;16.80;99.90;;;;;;4345682;33;45208;-83
2022/06/28 08:10:49;;;;;;;;;;;16.70;99.90;;;;;;4344037;33;44180;-83
2022/06/28 08:13:16;;;;;;;;;;;16.70;99.90;;;;;;4344573;33;46280;-83
2022/06/28 08:15:44;;;;;;;;;;;16.70;99.90;;;;;;4344440;33;42946;-82
2022/06/28 08:18:13;;;;;;;;;;;16.80;99.90;;;;;;4344939;33;43710;-82
2022/06/28 08:20:40;;;;;;;;;;;16.80;99.90;;;;;;4344704;33;20009;-83
2022/06/28 08:23:08;;;;;;;;;;;16.80;99.90;;;;;;4344306;33;46215;-83
2022/06/28 08:25:35;;;;;;;;;;;16.80;99.90;;;;;;4343892;33;44184;-83
2022/06/28 08:28:03;;;;;;;;;;;16.80;99.90;;;;;;4344080;33;45014;-85
2022/06/28 08:30:30;;;;;;;;;;;16.80;99.90;;;;;;4344303;33;43897;-84
2022/06/28 08:33:00;;;;;;;;;;;16.80;99.90;;;;;;4344223;33;43465;-83
2022/06/28 08:35:27;;;;;;;;;;;16.80;99.90;;;;;;4345576;33;44605;-84
2022/06/28 08:37:55;;;;;;;;;;;16.90;99.90;;;;;;4343879;33;44063;-84
2022/06/28 08:40:25;;;;;;;;;;;16.90;99.90;;;;;;4344076;33;43878;-84
2022/06/28 08:42:54;;;;;;;;;;;16.90;99.90;;;;;;4343841;33;44111;-83
2022/06/28 08:45:22;;;;;;;;;;;16.90;99.90;;;;;;4345315;33;44455;-85
2022/06/28 08:47:53;;;;;;;;;;;16.90;99.90;;;;;;4343675;33;44248;-83
2022/06/28 08:50:33;;;;;;;;;;;16.90;99.90;;;;;;4343791;33;46044;-81
2022/06/28 08:53:04;;;;;;;;;;;16.90;99.90;;;;;;4343823;33;43376;-85
2022/06/28 08:55:32;;;;;;;;;;;17.00;99.90;;;;;;4343990;33;43293;-86
2022/06/28 08:58:04;;;;;;;;;;;17.00;99.90;;;;;;4345067;33;46123;-86
2022/06/28 09:00:32;;;;;;;;;;;17.00;99.90;;;;;;4345212;33;44969;-82
2022/06/28 09:02:59;;;;;;;;;;;17.00;99.90;;;;;;4346428;33;44137;-88
2022/06/28 09:05:27;;;;;;;;;;;17.10;99.90;;;;;;4346836;33;45137;-89
2022/06/28 09:07:55;;;;;;;;;;;17.10;99.90;;;;;;4347693;33;44070;-88
2022/06/28 09:10:25;;;;;;;;;;;17.20;99.90;;;;;;4346939;33;45034;-81
2022/06/28 09:13:13;;;;;;;;;;;17.20;99.90;;;;;;4347104;33;44200;-87
2022/06/28 09:15:48;;;;;;;;;;;17.20;99.90;;;;;;4347584;33;43884;-87
2022/06/28 09:18:16;;;;;;;;;;;17.30;99.90;;;;;;4348277;33;43277;-87
2022/06/28 09:20:44;;;;;;;;;;;17.30;99.90;;;;;;4346347;33;43233;-87
2022/06/28 09:23:40;;;;;;;;;;;17.40;99.90;;;;;;4346926;33;43270;-84
2022/06/28 09:26:09;;;;;;;;;;;17.40;99.90;;;;;;4335027;33;44553;-83
2022/06/28 09:28:41;;;;;;;;;;;17.40;99.90;;;;;;4347514;33;44084;-86
2022/06/28 09:31:13;;;;;;;;;;;17.40;99.90;;;;;;4347363;33;44777;-80
2022/06/28 09:33:42;;;;;;;;;;;17.40;99.90;;;;;;4346646;33;44836;-83
2022/06/28 09:36:10;;;;;;;;;;;17.40;99.90;;;;;;4346510;33;43181;-86
2022/06/28 09:38:40;;;;;;;;;;;17.50;99.90;;;;;;4347154;33;42994;-81
2022/06/28 09:41:26;;;;;;;;;;;17.50;99.90;;;;;;4346256;33;42655;-89
2022/06/28 09:43:58;;;;;;;;;;;17.50;99.90;;;;;;4347629;33;42572;-80
2022/06/28 09:46:27;;;;;;;;;;;17.60;99.90;;;;;;4346744;33;44220;-81
2022/06/28 09:48:58;;;;;;;;;;;17.60;99.90;;;;;;4347664;33;45812;-83
2022/06/28 09:51:25;;;;;;;;;;;17.60;99.30;;;;;;4347801;33;43680;-86
2022/06/28 09:53:55;;;;;;;;;;;17.60;99.10;;;;;;4346345;33;44045;-84
2022/06/28 09:56:43;;;;;;;;;;;17.60;99.40;;;;;;4346753;33;46054;-84
2022/06/28 09:59:10;;;;;;;;;;;17.60;99.40;;;;;;4346158;33;44226;-83
2022/06/28 10:01:37;;;;;;;;;;;17.60;99.50;;;;;;4346936;32;44665;-84
2022/06/28 10:04:07;;;;;;;;;;;17.60;99.40;;;;;;4345986;33;43548;-83
2022/06/28 10:06:35;;;;;;;;;;;17.70;99.30;;;;;;4347139;33;44595;-81
2022/06/28 10:09:07;;;;;;;;;;;17.70;98.60;;;;;;4347132;32;43996;-82
2022/06/28 10:17:17;;;;;;;;;;;17.80;99.10;;;;;;4347215;33;43219;-84
2022/06/28 10:19:45;;;;;;;;;;;17.80;99.40;;;;;;4346578;33;43761;-80
2022/06/28 10:22:12;;;;;;;;;;;17.80;99.10;;;;;;4346680;33;44583;-86
2022/06/28 10:24:49;;;;;;;;;;;17.80;99.40;;;;;;4346973;32;44398;-81
2022/06/28 10:27:16;;;;;;;;;;;17.80;99.30;;;;;;4346614;33;44360;-82
2022/06/28 10:29:58;;;;;;;;;;;17.80;99.10;;;;;;4345592;33;45786;-84
2022/06/28 10:32:49;;;;;;;;;;;17.80;98.70;;;;;;4346284;33;44125;-83
2022/06/28 10:35:47;;;;;;;;;;;17.80;98.90;;;;;;4336035;33;45291;-84
2022/06/28 10:38:14;;;;;;;;;;;17.80;99.10;;;;;;4323375;33;45037;-82
2022/06/28 10:40:47;;;;;;;;;;;17.70;98.90;;;;;;4346521;33;44582;-83
2022/06/28 10:43:35;;;;;;;;;;;17.70;99.00;;;;;;4345067;33;44872;-85
2022/06/28 10:46:05;;;;;;;;;;;17.70;99.10;;;;;;4344911;33;44629;-83
2022/06/28 10:48:56;;;;;;;;;;;17.70;99.00;;;;;;4345307;33;43363;-84
2022/06/28 10:51:23;;;;;;;;;;;17.80;99.30;;;;;;4335904;33;44124;-84
2022/06/28 10:54:01;;;;;;;;;;;17.80;99.20;;;;;;4346485;33;45764;-84
2022/06/28 10:56:29;;;;;;;;;;;17.80;99.00;;;;;;4346707;32;45299;-85
2022/06/28 10:58:56;;;;;;;;;;;17.80;99.50;;;;;;4346111;33;44693;-85
2022/06/28 11:01:39;;;;;;;;;;;17.80;99.20;;;;;;4345999;33;42904;-82
2022/06/28 11:04:07;;;;;;;;;;;17.80;98.90;;;;;;4345017;33;43298;-84
2022/06/28 11:06:41;;;;;;;;;;;17.80;98.50;;;;;;4345427;33;45505;-81
2022/06/28 11:09:11;;;;;;;;;;;17.90;98.40;;;;;;4344881;33;43881;-81
2022/06/28 11:11:58;;;;;;;;;;;17.90;98.50;;;;;;4345837;33;45277;-87
2022/06/28 11:14:36;;;;;;;;;;;18.00;98.90;;;;;;4345261;33;43508;-81
2022/06/28 11:17:17;;;;;;;;;;;18.00;98.80;;;;;;4345238;33;44267;-81
2022/06/28 11:19:50;;;;;;;;;;;18.10;98.40;;;;;;4345823;33;43765;-82
2022/06/28 11:22:19;;;;;;;;;;;18.10;98.20;;;;;;4345144;33;42642;-82
2022/06/28 11:24:47;;;;;;;;;;;18.10;98.20;;;;;;4345663;33;42776;-82
2022/06/28 11:27:23;;;;;;;;;;;18.20;98.10;;;;;;4345055;33;45346;-81
2022/06/28 11:29:54;;;;;;;;;;;18.20;98.00;;;;;;4344996;33;45732;-82
2022/06/28 11:32:32;;;;;;;;;;;18.20;98.00;;;;;;4344559;33;43494;-81
2022/06/28 11:34:59;;;;;;;;;;;18.20;98.40;;;;;;4345073;33;44690;-81
2022/06/28 11:37:28;;;;;;;;;;;18.20;98.20;;;;;;4344415;33;46002;-81
2022/06/28 11:40:02;;;;;;;;;;;18.20;98.30;;;;;;4344568;33;45445;-83
2022/06/28 11:42:29;;;;;;;;;;;18.20;98.60;;;;;;4344941;33;46171;-81
2022/06/28 11:44:57;;;;;;;;;;;18.20;98.50;;;;;;4345899;33;42935;-81
2022/06/28 11:47:24;;;;;;;;;;;18.30;98.50;;;;;;4345761;33;43823;-83
2022/06/28 11:50:08;;;;;;;;;;;18.30;98.50;;;;;;4344952;33;44370;-86
2022/06/28 11:52:52;;;;;;;;;;;18.30;98.50;;;;;;4344626;33;42654;-81
2022/06/28 11:55:37;;;;;;;;;;;18.40;98.50;;;;;;4345724;33;45732;-83
2022/06/28 11:58:13;;;;;;;;;;;18.40;98.20;;;;;;4346079;33;46050;-82
2022/06/28 12:01:00;;;;;;;;;;;18.40;98.50;;;;;;4344264;33;44966;-83
2022/06/28 12:03:30;;;;;;;;;;;18.40;98.60;;;;;;4344357;33;44092;-84
2022/06/28 12:06:01;;;;;;;;;;;18.50;98.80;;;;;;4344138;33;43475;-85
2022/06/28 12:09:09;;;;;;;;;;;18.50;98.60;;;;;;4344564;33;44332;-83
2022/06/28 12:11:44;;;;;;;;;;;18.50;98.70;;;;;;4272656;33;43539;-82
2022/06/28 12:14:22;;;;;;;;;;;18.50;98.70;;;;;;4335461;33;43042;-82
2022/06/28 12:16:52;;;;;;;;;;;18.60;98.70;;;;;;4345553;33;20043;-82
2022/06/28 12:19:20;;;;;;;;;;;18.60;98.70;;;;;;4343935;33;42958;-81
2022/06/28 12:22:01;;;;;;;;;;;18.60;98.70;;;;;;4344440;33;44648;-82
2022/06/28 12:24:38;;;;;;;;;;;18.60;98.50;;;;;;4344447;33;44645;-80
2022/06/28 12:27:07;;;;;;;;;;;18.60;97.80;;;;;;4343974;33;44104;-84
2022/06/28 12:29:37;;;;;;;;;;;18.60;97.60;;;;;;4345361;33;44896;-82
2022/06/28 12:32:04;;;;;;;;;;;18.50;97.60;;;;;;4344252;33;44288;-81
2022/06/28 12:35:02;;;;;;;;;;;18.50;98.10;;;;;;4343957;33;46038;-81
2022/06/28 12:37:29;;;;;;;;;;;18.50;98.00;;;;;;4344255;33;45054;-82
2022/06/28 12:39:57;;;;;;;;;;;18.50;97.60;;;;;;4344269;33;43950;-82
2022/06/28 12:42:26;;;;;;;;;;;18.60;97.80;;;;;;4344191;33;43834;-80
2022/06/28 12:44:54;;;;;;;;;;;18.60;97.90;;;;;;4343763;33;42704;-81
2022/06/28 12:47:21;;;;;;;;;;;18.60;97.90;;;;;;4344005;33;43268;-82
2022/06/28 12:49:48;;;;;;;;;;;18.60;97.70;;;;;;4344106;33;44092;-84
2022/06/28 12:52:18;;;;;;;;;;;18.60;97.90;;;;;;4344064;33;45570;-83
2022/06/28 12:54:45;;;;;;;;;;;18.60;97.80;;;;;;4343795;33;44014;-83
2022/06/28 12:57:15;;;;;;;;;;;18.70;98.20;;;;;;4345122;33;45118;-82
2022/06/28 12:59:45;;;;;;;;;;;18.70;97.70;;;;;;4346110;33;20001;-81
2022/06/28 13:02:12;;;;;;;;;;;18.80;98.00;;;;;;4346389;33;43474;-84
2022/06/28 13:04:39;;;;;;;;;;;18.80;98.10;;;;;;4346645;33;44039;-88
2022/06/28 13:07:06;;;;;;;;;;;18.80;97.90;;;;;;4346022;33;44376;-82
2022/06/28 13:09:39;;;;;;;;;;;18.90;97.70;;;;;;4346458;33;44218;-82
2022/06/28 13:12:06;;;;;;;;;;;18.90;98.10;;;;;;4346218;33;44757;-82
2022/06/28 13:14:33;;;;;;;;;;;19.00;98.10;;;;;;4346280;33;44891;-82
2022/06/28 13:17:00;;;;;;;;;;;18.90;97.30;;;;;;4346471;33;45791;-82
2022/06/28 13:19:28;;;;;;;;;;;18.90;97.50;;;;;;4346066;33;45379;-82
2022/06/28 13:21:55;;;;;;;;;;;19.00;97.90;;;;;;4346472;33;44264;-82
2022/06/28 13:24:25;;;;;;;;;;;19.00;97.70;;;;;;4346417;33;45391;-82
2022/06/28 13:26:52;;;;;;;;;;;19.00;97.60;;;;;;4359743;33;45836;-81
2022/06/28 13:29:19;;;;;;;;;;;18.90;97.50;;;;;;4346430;33;44704;-82
2022/06/28 13:31:47;;;;;;;;;;;18.90;97.60;;;;;;4346413;33;42934;-81
2022/06/28 13:34:22;;;;;;;;;;;18.90;97.80;;;;;;4359880;33;45829;-81
2022/06/28 13:36:49;;;;;;;;;;;18.90;97.90;;;;;;4346420;33;44031;-80
2022/06/28 13:39:18;;;;;;;;;;;19.00;97.80;;;;;;4346634;33;43037;-83
2022/06/28 13:41:45;;;;;;;;;;;19.00;98.00;;;;;;4346293;33;45533;-83
2022/06/28 13:44:20;;;;;;;;;;;19.00;97.90;;;;;;4346205;33;46215;-83
2022/06/28 13:46:57;;;;;;;;;;;19.00;97.90;;;;;;4347919;32;44141;-81
2022/06/28 13:49:29;;;;;;;;;;;19.00;97.70;;;;;;4362296;32;46120;-81
2022/06/28 13:52:09;;;;;;;;;;;19.00;97.80;;;;;;4349015;32;44857;-81
2022/06/28 13:54:36;;;;;;;;;;;19.10;97.80;;;;;;4348443;32;45759;-81
2022/06/28 13:57:06;;;;;;;;;;;19.10;97.90;;;;;;4348696;32;44695;-81
2022/06/28 13:59:39;;;;;;;;;;;19.10;97.90;;;;;;4362351;32;44868;-81
2022/06/28 14:02:09;;;;;;;;;;;19.10;97.90;;;;;;4348223;32;45756;-80
2022/06/28 14:04:42;;;;;;;;;;;19.20;97.90;;;;;;4348898;32;45131;-82
2022/06/28 14:07:09;;;;;;;;;;;19.20;98.10;;;;;;4348936;32;45389;-81
2022/06/28 14:09:42;;;;;;;;;;;19.20;98.00;;;;;;4361616;32;44227;-82
2022/06/28 14:12:17;;;;;;;;;;;19.30;98.20;;;;;;4349043;32;45248;-81
2022/06/28 14:14:50;;;;;;;;;;;19.30;98.10;;;;;;4348621;32;43461;-81
2022/06/28 14:17:17;;;;;;;;;;;19.30;98.10;;;;;;4348791;32;43958;-81
2022/06/28 14:19:50;;;;;;;;;;;19.30;98.20;;;;;;4348599;32;45953;-82
2022/06/28 14:22:22;;;;;;;;;;;19.30;98.00;;;;;;4348614;32;45039;-81
2022/06/28 14:25:04;;;;;;;;;;;19.30;98.10;;;;;;4349305;32;43245;-86
2022/06/28 14:27:39;;;;;;;;;;;19.40;98.50;;;;;;4362098;32;43680;-82
2022/06/28 14:30:25;;;;;;;;;;;19.40;98.20;;;;;;4361798;32;44161;-80
2022/06/28 14:32:52;;;;;;;;;;;19.40;97.90;;;;;;4347824;32;46011;-81
2022/06/28 14:35:26;;;;;;;;;;;19.40;97.80;;;;;;4348947;32;44070;-89
2022/06/28 14:38:18;;;;;;;;;;;19.40;97.50;;;;;;4361742;32;45905;-82
2022/06/28 14:40:45;;;;;;;;;;;19.40;96.80;;;;;;4348128;32;45866;-84
2022/06/28 14:43:13;;;;;;;;;;;19.40;96.80;;;;;;4348515;32;45358;-82
2022/06/28 14:45:40;;;;;;;;;;;19.40;96.90;;;;;;4347845;32;43367;-84
2022/06/28 14:48:23;;;;;;;;;;;19.50;97.20;;;;;;4349971;32;43854;-82